Time;durP1;ratioP1;P1;durP2;ratioP2;P2;SDS_P1;SDS_P2;PMS_P1;PMS_P2;Temp;Humidity;BMP_temperature;BMP_pressure;BME280_temperature;BME280_humidity;BME280_pressure;Samples;Min_cycle;Max_cycle;Signal;HPM_P1;HPM_P2
2024/04/03 00:02:05;;;;;;;2.30;0.60;;;;;;;;;;5113320;28;20127;-59
2024/04/03 00:04:30;;;;;;;1.42;0.57;;;;;;;;;;5114147;28;20063;-58
2024/04/03 00:06:57;;;;;;;1.23;0.52;;;;;;;;;;5114324;28;20039;-61
2024/04/03 00:09:23;;;;;;;1.20;0.50;;;;;;;;;;5114333;28;20051;-59
2024/04/03 00:11:48;;;;;;;3.45;0.60;;;;;;;;;;5114036;28;20395;-60
2024/04/03 00:14:13;;;;;;;0.40;0.32;;;;;;;;;;5113739;28;20032;-60
2024/04/03 00:16:39;;;;;;;1.08;0.40;;;;;;;;;;5114423;28;20081;-60
2024/04/03 00:19:04;;;;;;;1.08;0.50;;;;;;;;;;5113879;28;20038;-61
2024/04/03 00:21:29;;;;;;;1.10;0.40;;;;;;;;;;5113986;28;20060;-61
2024/04/03 00:23:55;;;;;;;0.45;0.35;;;;;;;;;;5114492;28;20039;-61
2024/04/03 00:26:21;;;;;;;0.75;0.40;;;;;;;;;;5113718;27;20034;-61
2024/04/03 00:28:46;;;;;;;1.80;0.65;;;;;;;;;;5113581;28;20040;-54
2024/04/03 00:31:12;;;;;;;0.68;0.40;;;;;;;;;;5113684;28;20542;-56
2024/04/03 00:33:37;;;;;;;1.35;0.60;;;;;;;;;;5113447;28;20023;-55
2024/04/03 00:36:03;;;;;;;1.75;0.60;;;;;;;;;;5110291;28;20117;-58
2024/04/03 00:38:28;;;;;;;4.45;0.65;;;;;;;;;;5112427;28;20044;-57
2024/04/03 00:40:57;;;;;;;0.55;0.40;;;;;;;;;;5112824;28;20024;-59
2024/04/03 00:43:23;;;;;;;1.02;0.50;;;;;;;;;;5111240;28;20114;-60
2024/04/03 00:45:49;;;;;;;0.57;0.40;;;;;;;;;;5112681;28;20134;-61
2024/04/03 00:48:15;;;;;;;0.98;0.40;;;;;;;;;;5112027;28;20027;-55
2024/04/03 00:50:40;;;;;;;1.13;0.50;;;;;;;;;;5111603;28;20512;-54
2024/04/03 00:53:06;;;;;;;0.30;0.22;;;;;;;;;;5112403;28;20155;-56
2024/04/03 00:55:31;;;;;;;1.40;0.57;;;;;;;;;;5113477;28;20482;-56
2024/04/03 00:57:56;;;;;;;1.20;0.63;;;;;;;;;;5114322;27;20397;-55
2024/04/03 01:00:22;;;;;;;0.85;0.43;;;;;;;;;;5112409;28;20418;-54
2024/04/03 01:02:47;;;;;;;0.90;0.40;;;;;;;;;;5113435;28;20047;-54
2024/04/03 01:05:13;;;;;;;0.57;0.35;;;;;;;;;;5112094;28;20031;-57
2024/04/03 01:07:38;;;;;;;1.00;0.50;;;;;;;;;;5112826;28;20028;-55
2024/04/03 01:10:04;;;;;;;0.82;0.40;;;;;;;;;;5113675;28;20038;-56
2024/04/03 01:12:32;;;;;;;0.90;0.50;;;;;;;;;;5112843;28;20036;-56
2024/04/03 01:14:57;;;;;;;1.73;0.60;;;;;;;;;;5107175;28;20497;-55
2024/04/03 01:17:23;;;;;;;0.32;0.32;;;;;;;;;;5112897;28;20035;-59
2024/04/03 01:19:49;;;;;;;0.30;0.30;;;;;;;;;;5113204;28;20051;-57
2024/04/03 01:22:14;;;;;;;1.08;0.43;;;;;;;;;;5112316;28;20040;-55
2024/04/03 01:24:40;;;;;;;1.50;0.40;;;;;;;;;;5112491;27;20097;-56
2024/04/03 01:27:05;;;;;;;3.35;0.40;;;;;;;;;;5112422;28;20036;-59
2024/04/03 01:29:31;;;;;;;0.95;0.50;;;;;;;;;;5111975;28;20059;-57
2024/04/03 01:31:56;;;;;;;0.95;0.50;;;;;;;;;;5112562;28;20040;-53
2024/04/03 01:34:22;;;;;;;0.70;0.30;;;;;;;;;;5115567;27;20077;-52
2024/04/03 01:36:47;;;;;;;0.57;0.38;;;;;;;;;;5112725;28;20024;-54
2024/04/03 01:39:12;;;;;;;1.30;0.52;;;;;;;;;;5112117;28;20506;-53
2024/04/03 01:41:38;;;;;;;1.13;0.50;;;;;;;;;;5112485;28;20028;-61
2024/04/03 01:44:03;;;;;;;1.25;0.60;;;;;;;;;;5111857;28;20034;-63
2024/04/03 01:46:29;;;;;;;1.08;0.50;;;;;;;;;;5112259;28;20142;-62
2024/04/03 01:48:54;;;;;;;0.88;0.52;;;;;;;;;;5112333;28;20039;-62
2024/04/03 01:51:19;;;;;;;0.63;0.40;;;;;;;;;;5112656;28;20352;-60
2024/04/03 01:53:44;;;;;;;0.93;0.45;;;;;;;;;;5111967;28;20035;-61
2024/04/03 01:56:10;;;;;;;2.53;0.47;;;;;;;;;;5112360;28;20031;-63
2024/04/03 01:58:35;;;;;;;0.45;0.30;;;;;;;;;;5116382;27;20027;-54
2024/04/03 02:01:00;;;;;;;0.60;0.40;;;;;;;;;;5111504;28;20039;-53
2024/04/03 02:03:26;;;;;;;0.57;0.35;;;;;;;;;;5114582;27;20035;-49
2024/04/03 02:05:51;;;;;;;0.40;0.35;;;;;;;;;;5111789;28;20033;-53
2024/04/03 02:08:16;;;;;;;1.73;0.45;;;;;;;;;;5112635;28;20042;-55
2024/04/03 02:10:45;;;;;;;1.27;0.50;;;;;;;;;;5111069;28;20118;-53
2024/04/03 02:13:10;;;;;;;1.30;0.57;;;;;;;;;;5112326;28;20051;-56
2024/04/03 02:15:35;;;;;;;0.82;0.47;;;;;;;;;;5107911;28;20075;-54
2024/04/03 02:18:01;;;;;;;0.57;0.40;;;;;;;;;;5111668;28;20043;-56
2024/04/03 02:20:26;;;;;;;1.83;0.50;;;;;;;;;;5111523;28;20458;-53
2024/04/03 02:22:52;;;;;;;1.05;0.50;;;;;;;;;;5112069;28;20032;-52
2024/04/03 02:25:18;;;;;;;0.80;0.47;;;;;;;;;;5111568;28;20035;-53
2024/04/03 02:27:44;;;;;;;3.85;0.60;;;;;;;;;;5111648;28;20023;-56
2024/04/03 02:30:10;;;;;;;1.15;0.40;;;;;;;;;;5111163;28;20043;-57
2024/04/03 02:32:35;;;;;;;1.98;0.50;;;;;;;;;;5109946;28;20046;-56
2024/04/03 02:35:01;;;;;;;1.48;0.52;;;;;;;;;;5110206;28;20046;-53
2024/04/03 02:37:26;;;;;;;3.00;0.60;;;;;;;;;;5111571;28;20390;-52
2024/04/03 02:39:51;;;;;;;0.90;0.40;;;;;;;;;;5111727;28;20032;-54
2024/04/03 02:42:17;;;;;;;1.35;0.60;;;;;;;;;;5110892;28;20023;-51
2024/04/03 02:44:42;;;;;;;1.15;0.40;;;;;;;;;;5111062;28;20100;-56
2024/04/03 02:47:07;;;;;;;2.08;0.47;;;;;;;;;;5111594;28;20122;-54
2024/04/03 02:49:32;;;;;;;2.60;0.50;;;;;;;;;;5110544;28;20055;-55
2024/04/03 02:51:58;;;;;;;1.23;0.43;;;;;;;;;;5111155;27;20047;-56
2024/04/03 02:54:23;;;;;;;1.05;0.50;;;;;;;;;;5102005;28;20047;-56
2024/04/03 02:56:48;;;;;;;1.10;0.47;;;;;;;;;;5110456;28;20038;-53
2024/04/03 02:59:14;;;;;;;3.67;0.80;;;;;;;;;;5116682;27;20110;-54
2024/04/03 03:01:39;;;;;;;1.38;0.40;;;;;;;;;;5111041;28;20052;-56
2024/04/03 03:04:05;;;;;;;5.20;0.52;;;;;;;;;;5111017;28;20079;-57
2024/04/03 03:06:31;;;;;;;1.27;0.40;;;;;;;;;;5110167;28;20042;-55
2024/04/03 03:08:56;;;;;;;2.95;0.60;;;;;;;;;;5111132;28;20039;-58
2024/04/03 03:11:22;;;;;;;0.82;0.45;;;;;;;;;;5108711;28;20042;-51
2024/04/03 03:13:47;;;;;;;1.30;0.82;;;;;;;;;;5110627;28;20043;-55
2024/04/03 03:16:19;;;;;;;2.95;0.88;;;;;;;;;;5110725;28;20044;-56
2024/04/03 03:18:45;;;;;;;2.03;0.57;;;;;;;;;;5109499;28;20031;-52
2024/04/03 03:21:10;;;;;;;1.38;0.55;;;;;;;;;;5109676;28;20042;-54
2024/04/03 03:23:35;;;;;;;2.70;0.75;;;;;;;;;;5110679;28;20040;-55
2024/04/03 03:26:01;;;;;;;1.45;0.50;;;;;;;;;;5110268;28;20028;-50
2024/04/03 03:28:26;;;;;;;1.13;0.60;;;;;;;;;;5110561;28;20193;-54
2024/04/03 03:30:52;;;;;;;3.88;1.33;;;;;;;;;;5110911;28;20055;-53
2024/04/03 03:33:18;;;;;;;2.60;0.60;;;;;;;;;;5110234;28;20102;-55
2024/04/03 03:35:54;;;;;;;1.42;0.70;;;;;;;;;;5110440;28;20107;-55
2024/04/03 03:38:20;;;;;;;1.95;0.60;;;;;;;;;;5107242;28;20035;-54
2024/04/03 03:40:46;;;;;;;1.27;0.50;;;;;;;;;;5110341;28;20394;-56
2024/04/03 03:43:11;;;;;;;1.88;0.57;;;;;;;;;;5109536;28;20039;-54
2024/04/03 03:45:47;;;;;;;2.97;0.55;;;;;;;;;;5110414;28;20043;-53
2024/04/03 03:48:13;;;;;;;1.00;0.50;;;;;;;;;;5109687;28;20044;-55
2024/04/03 03:53:23;;;;;;;1.50;0.43;;;;;;;;;;5108716;28;20682;-61
2024/04/03 03:55:48;;;;;;;2.13;0.70;;;;;;;;;;5110008;28;20130;-61
2024/04/03 03:58:14;;;;;;;0.93;0.50;;;;;;;;;;5110414;28;20103;-59
2024/04/03 04:00:40;;;;;;;2.05;0.70;;;;;;;;;;5109431;28;20123;-60
2024/04/03 04:03:06;;;;;;;1.67;0.68;;;;;;;;;;5110333;28;20044;-61
2024/04/03 04:05:32;;;;;;;2.03;0.70;;;;;;;;;;5110057;28;20039;-54
2024/04/03 04:07:57;;;;;;;3.22;0.73;;;;;;;;;;5110065;28;20043;-56
2024/04/03 04:10:22;;;;;;;0.77;0.43;;;;;;;;;;5110104;28;20148;-56
2024/04/03 04:12:48;;;;;;;1.48;0.57;;;;;;;;;;5110492;28;20378;-52
2024/04/03 04:15:13;;;;;;;2.03;0.65;;;;;;;;;;5109962;28;20028;-56
2024/04/03 04:17:39;;;;;;;1.77;0.60;;;;;;;;;;5108597;28;20031;-60
2024/04/03 04:20:07;;;;;;;2.35;0.70;;;;;;;;;;5111965;28;20044;-63
2024/04/03 04:22:35;;;;;;;1.10;0.50;;;;;;;;;;5106352;28;20038;-62
2024/04/03 04:25:02;;;;;;;2.03;0.52;;;;;;;;;;5109892;28;20097;-58
2024/04/03 04:27:28;;;;;;;3.10;1.00;;;;;;;;;;5108855;28;20043;-62
2024/04/03 04:29:54;;;;;;;1.73;0.50;;;;;;;;;;5108832;28;20080;-53
2024/04/03 04:32:19;;;;;;;2.67;0.70;;;;;;;;;;5109544;28;20039;-58
2024/04/03 04:34:44;;;;;;;2.03;0.77;;;;;;;;;;5113483;28;20462;-55
2024/04/03 04:37:10;;;;;;;1.35;0.50;;;;;;;;;;5113255;28;20498;-53
2024/04/03 04:39:35;;;;;;;0.75;0.50;;;;;;;;;;5113368;28;20036;-54
2024/04/03 04:42:01;;;;;;;3.40;0.45;;;;;;;;;;5113575;28;20036;-52
2024/04/03 04:44:26;;;;;;;2.80;0.93;;;;;;;;;;5113772;28;20024;-56
2024/04/03 04:46:53;;;;;;;1.88;0.70;;;;;;;;;;5113966;28;20039;-55
2024/04/03 04:49:20;;;;;;;2.13;0.70;;;;;;;;;;5113125;28;20074;-52
2024/04/03 04:51:46;;;;;;;3.50;0.70;;;;;;;;;;5111920;28;20046;-56
2024/04/03 04:54:12;;;;;;;2.05;0.70;;;;;;;;;;5113633;28;20035;-56
2024/04/03 04:56:38;;;;;;;2.25;0.63;;;;;;;;;;5128490;27;20114;-57
2024/04/03 04:59:04;;;;;;;2.10;0.80;;;;;;;;;;5121177;27;20481;-56
2024/04/03 05:01:33;;;;;;;2.58;0.70;;;;;;;;;;5113205;28;20047;-56
2024/04/03 05:03:58;;;;;;;3.13;0.98;;;;;;;;;;5112922;28;20061;-53
2024/04/03 05:06:24;;;;;;;1.52;0.60;;;;;;;;;;5112390;28;20066;-57
2024/04/03 05:08:49;;;;;;;1.38;0.43;;;;;;;;;;5113066;28;20040;-53
2024/04/03 05:11:14;;;;;;;2.00;0.60;;;;;;;;;;5113006;28;20034;-55
2024/04/03 05:13:40;;;;;;;1.63;0.70;;;;;;;;;;5113012;28;20036;-54
2024/04/03 05:16:07;;;;;;;1.25;0.60;;;;;;;;;;5113368;28;20043;-51
2024/04/03 05:18:32;;;;;;;2.58;0.60;;;;;;;;;;5111694;28;20376;-54
2024/04/03 05:20:58;;;;;;;2.10;0.73;;;;;;;;;;5112303;28;20047;-53
2024/04/03 05:23:23;;;;;;;1.83;0.70;;;;;;;;;;5113383;28;20031;-54
2024/04/03 05:25:59;;;;;;;2.88;0.70;;;;;;;;;;5113208;28;20038;-55
2024/04/03 05:28:31;;;;;;;1.75;0.68;;;;;;;;;;5110434;28;20057;-56
2024/04/03 05:31:11;;;;;;;2.50;0.60;;;;;;;;;;5112957;28;20054;-53
2024/04/03 05:33:37;;;;;;;1.30;0.52;;;;;;;;;;5112681;28;20032;-55
2024/04/03 05:36:04;;;;;;;1.42;0.50;;;;;;;;;;5112736;27;20046;-52
2024/04/03 05:38:30;;;;;;;1.35;0.60;;;;;;;;;;5112276;28;20070;-54
2024/04/03 05:40:56;;;;;;;2.85;0.70;;;;;;;;;;5110842;28;20623;-53
2024/04/03 05:43:22;;;;;;;1.50;0.50;;;;;;;;;;5110881;28;20055;-56
2024/04/03 05:45:49;;;;;;;1.23;0.52;;;;;;;;;;5111718;28;20106;-57
2024/04/03 05:48:15;;;;;;;2.55;0.60;;;;;;;;;;5115981;27;20031;-57
2024/04/03 05:50:41;;;;;;;1.67;0.70;;;;;;;;;;5110825;28;20089;-55
2024/04/03 05:53:07;;;;;;;1.33;0.70;;;;;;;;;;5112079;28;20023;-53
2024/04/03 05:55:32;;;;;;;0.93;0.40;;;;;;;;;;5112567;28;20047;-53
2024/04/03 05:57:58;;;;;;;1.65;0.63;;;;;;;;;;5111889;28;20035;-54
2024/04/03 06:00:23;;;;;;;1.83;0.57;;;;;;;;;;5110536;28;20084;-51
2024/04/03 06:02:48;;;;;;;1.40;0.50;;;;;;;;;;5111266;28;20032;-59
2024/04/03 06:05:14;;;;;;;1.65;0.57;;;;;;;;;;5114233;27;20046;-59
2024/04/03 06:07:40;;;;;;;1.30;0.60;;;;;;;;;;5119769;27;20041;-61
2024/04/03 06:10:06;;;;;;;2.90;0.70;;;;;;;;;;5119430;27;20035;-58
2024/04/03 06:12:31;;;;;;;1.45;0.60;;;;;;;;;;5112272;28;20032;-61
2024/04/03 06:14:57;;;;;;;2.78;0.50;;;;;;;;;;5112027;27;20040;-59
2024/04/03 06:17:22;;;;;;;1.00;0.50;;;;;;;;;;5110026;27;20104;-58
2024/04/03 06:19:48;;;;;;;0.98;0.52;;;;;;;;;;5112115;28;20092;-58
2024/04/03 06:22:13;;;;;;;1.38;0.45;;;;;;;;;;5111077;28;20111;-61
2024/04/03 06:24:40;;;;;;;1.30;0.57;;;;;;;;;;5111411;28;20470;-60
2024/04/03 06:27:05;;;;;;;0.93;0.50;;;;;;;;;;5111151;28;20032;-60
2024/04/03 06:29:30;;;;;;;2.40;0.57;;;;;;;;;;5110652;28;20138;-60
2024/04/03 06:31:57;;;;;;;1.55;0.50;;;;;;;;;;5108326;28;20043;-56
2024/04/03 06:34:22;;;;;;;2.35;0.50;;;;;;;;;;5111442;28;20364;-54
2024/04/03 06:36:48;;;;;;;1.95;0.80;;;;;;;;;;5111602;28;20441;-54
2024/04/03 06:39:13;;;;;;;1.20;0.50;;;;;;;;;;5111130;28;20035;-57
2024/04/03 06:41:38;;;;;;;2.05;0.50;;;;;;;;;;5111131;28;20042;-55
2024/04/03 06:44:04;;;;;;;1.77;0.43;;;;;;;;;;5111364;28;20039;-53
2024/04/03 06:46:29;;;;;;;1.23;0.45;;;;;;;;;;5111384;28;20038;-55
2024/04/03 06:48:54;;;;;;;2.13;0.70;;;;;;;;;;5111147;28;20483;-53
2024/04/03 06:51:20;;;;;;;0.93;0.50;;;;;;;;;;5110595;28;20058;-57
2024/04/03 06:53:46;;;;;;;0.60;0.40;;;;;;;;;;5111121;28;20083;-51
2024/04/03 06:56:11;;;;;;;1.25;0.60;;;;;;;;;;5109828;28;20039;-54
2024/04/03 06:58:39;;;;;;;0.68;0.30;;;;;;;;;;5111884;27;20024;-54
2024/04/03 07:01:05;;;;;;;3.42;0.45;;;;;;;;;;5109968;28;20032;-60
2024/04/03 07:03:30;;;;;;;4.65;0.73;;;;;;;;;;5109044;28;20035;-59
2024/04/03 07:05:56;;;;;;;2.65;0.68;;;;;;;;;;5110697;28;20039;-60
2024/04/03 07:08:21;;;;;;;2.08;0.60;;;;;;;;;;5111314;28;20050;-58
2024/04/03 07:10:46;;;;;;;1.55;0.68;;;;;;;;;;5110246;28;20047;-61
2024/04/03 07:13:12;;;;;;;3.97;0.80;;;;;;;;;;5104961;28;20032;-61
2024/04/03 07:15:37;;;;;;;1.92;0.60;;;;;;;;;;5110703;28;20456;-56
2024/04/03 07:18:03;;;;;;;1.50;0.50;;;;;;;;;;5110575;28;20046;-53
2024/04/03 07:20:29;;;;;;;2.00;0.60;;;;;;;;;;5110803;28;20023;-56
2024/04/03 07:22:56;;;;;;;0.82;0.50;;;;;;;;;;5110740;28;20032;-53
2024/04/03 07:25:22;;;;;;;1.95;0.52;;;;;;;;;;5109529;28;20542;-56
2024/04/03 07:27:48;;;;;;;3.75;0.60;;;;;;;;;;5110391;28;20118;-52
2024/04/03 07:30:14;;;;;;;1.70;0.70;;;;;;;;;;5126904;27;20067;-56
2024/04/03 07:32:41;;;;;;;1.60;0.55;;;;;;;;;;5108600;28;20064;-54
2024/04/03 07:35:06;;;;;;;2.10;0.60;;;;;;;;;;5109122;28;20391;-51
2024/04/03 07:37:32;;;;;;;1.67;0.47;;;;;;;;;;5110736;28;20048;-53
2024/04/03 07:39:57;;;;;;;2.05;0.60;;;;;;;;;;5110963;28;20050;-56
2024/04/03 07:42:24;;;;;;;2.20;0.70;;;;;;;;;;5110390;28;20031;-50
2024/04/03 07:44:52;;;;;;;4.45;0.70;;;;;;;;;;5110549;28;20035;-52
2024/04/03 07:47:17;;;;;;;1.63;0.60;;;;;;;;;;5110679;28;20039;-55
2024/04/03 07:49:42;;;;;;;5.95;0.70;;;;;;;;;;5110384;28;20051;-55
2024/04/03 07:52:08;;;;;;;1.90;0.60;;;;;;;;;;5108377;28;20050;-54
2024/04/03 07:54:33;;;;;;;1.88;0.40;;;;;;;;;;5110744;28;20039;-49
2024/04/03 07:56:58;;;;;;;1.58;0.50;;;;;;;;;;5110632;28;20024;-55
2024/04/03 07:59:24;;;;;;;0.80;0.40;;;;;;;;;;5113339;28;20040;-53
2024/04/03 08:01:49;;;;;;;1.50;0.65;;;;;;;;;;5110552;28;20040;-54
2024/04/03 08:04:15;;;;;;;1.20;0.50;;;;;;;;;;5110757;28;20027;-53
2024/04/03 08:06:41;;;;;;;3.35;0.50;;;;;;;;;;5109897;28;20027;-54
2024/04/03 08:09:06;;;;;;;1.25;0.40;;;;;;;;;;5113751;28;20040;-54
2024/04/03 08:11:32;;;;;;;1.00;0.43;;;;;;;;;;5114180;28;20124;-55
2024/04/03 08:13:59;;;;;;;1.02;0.43;;;;;;;;;;5112711;28;20059;-55
2024/04/03 08:16:24;;;;;;;0.88;0.40;;;;;;;;;;5114403;28;20078;-61
2024/04/03 08:18:50;;;;;;;0.80;0.40;;;;;;;;;;5114236;28;20055;-61
2024/04/03 08:21:15;;;;;;;0.95;0.47;;;;;;;;;;5114347;28;20484;-61
2024/04/03 08:23:41;;;;;;;1.55;0.60;;;;;;;;;;5113846;28;20092;-62
2024/04/03 08:26:09;;;;;;;0.90;0.40;;;;;;;;;;5114446;28;20023;-59
2024/04/03 08:28:41;;;;;;;1.15;0.43;;;;;;;;;;5114184;28;20035;-56
2024/04/03 08:31:14;;;;;;;0.82;0.70;;;;;;;;;;5112647;28;20050;-55
2024/04/03 08:33:39;;;;;;;0.75;0.40;;;;;;;;;;5110135;28;20046;-60
2024/04/03 08:36:07;;;;;;;1.85;0.57;;;;;;;;;;5114235;28;20111;-61
2024/04/03 08:38:32;;;;;;;0.82;0.50;;;;;;;;;;5113374;28;20032;-60
2024/04/03 08:40:59;;;;;;;0.80;0.43;;;;;;;;;;5114050;28;20475;-58
2024/04/03 08:43:25;;;;;;;2.25;0.50;;;;;;;;;;5111951;28;20074;-60
2024/04/03 08:45:53;;;;;;;1.13;0.38;;;;;;;;;;5113738;28;20059;-62
2024/04/03 08:48:20;;;;;;;0.80;0.50;;;;;;;;;;5113172;28;20503;-62
2024/04/03 08:50:46;;;;;;;0.20;0.20;;;;;;;;;;5113686;28;20046;-61
2024/04/03 08:53:13;;;;;;;1.00;0.50;;;;;;;;;;5113767;28;20028;-60
2024/04/03 08:55:40;;;;;;;0.82;0.28;;;;;;;;;;5111242;28;20051;-63
2024/04/03 08:58:05;;;;;;;1.27;0.57;;;;;;;;;;5113495;28;20050;-62
2024/04/03 09:00:31;;;;;;;0.77;0.50;;;;;;;;;;5113704;28;20531;-63
2024/04/03 09:02:57;;;;;;;1.48;0.40;;;;;;;;;;5094688;28;20402;-63
2024/04/03 09:05:23;;;;;;;0.60;0.40;;;;;;;;;;5112421;28;20096;-61
2024/04/03 09:08:03;;;;;;;1.42;0.45;;;;;;;;;;5113313;28;20455;-61
2024/04/03 09:10:33;;;;;;;3.25;0.57;;;;;;;;;;5111798;28;20102;-59
2024/04/03 09:13:08;;;;;;;1.85;0.50;;;;;;;;;;5112205;28;20031;-61
2024/04/03 09:15:34;;;;;;;0.65;0.30;;;;;;;;;;5111460;28;20028;-56
2024/04/03 09:18:09;;;;;;;1.98;0.60;;;;;;;;;;5112391;28;20031;-60
2024/04/03 09:20:38;;;;;;;0.88;0.40;;;;;;;;;;5116727;27;20471;-61
2024/04/03 09:23:04;;;;;;;0.65;0.40;;;;;;;;;;5109914;28;20122;-60
2024/04/03 09:25:33;;;;;;;0.90;0.50;;;;;;;;;;5112918;27;20110;-57
2024/04/03 09:28:04;;;;;;;1.20;0.57;;;;;;;;;;5112901;28;20374;-59
2024/04/03 09:30:30;;;;;;;0.93;0.50;;;;;;;;;;5113163;28;20036;-59
2024/04/03 09:33:05;;;;;;;1.85;0.60;;;;;;;;;;5091621;28;20530;-60
2024/04/03 09:35:35;;;;;;;1.90;0.63;;;;;;;;;;5111638;28;20539;-56
2024/04/03 09:38:01;;;;;;;1.38;0.77;;;;;;;;;;5111490;28;20027;-57
2024/04/03 09:40:28;;;;;;;1.10;0.60;;;;;;;;;;5112613;28;20527;-59
2024/04/03 09:42:57;;;;;;;0.88;0.50;;;;;;;;;;5109020;28;20060;-60
2024/04/03 09:45:24;;;;;;;0.70;0.40;;;;;;;;;;5113009;28;20122;-59
2024/04/03 09:48:12;;;;;;;1.20;0.50;;;;;;;;;;5112680;28;20020;-60
2024/04/03 09:50:44;;;;;;;1.30;0.63;;;;;;;;;;5111064;28;20036;-61
2024/04/03 09:53:20;;;;;;;1.10;0.60;;;;;;;;;;5112708;28;20056;-60
2024/04/03 09:55:49;;;;;;;1.55;0.60;;;;;;;;;;5121483;27;20043;-61
2024/04/03 09:58:18;;;;;;;0.77;0.50;;;;;;;;;;5110909;28;20035;-61
2024/04/03 10:00:57;;;;;;;0.63;0.47;;;;;;;;;;5111146;28;20035;-60
2024/04/03 10:03:29;;;;;;;0.77;0.50;;;;;;;;;;5094234;28;20176;-59
2024/04/03 10:06:03;;;;;;;0.65;0.40;;;;;;;;;;5110630;28;20031;-61
2024/04/03 10:08:48;;;;;;;3.40;0.60;;;;;;;;;;5106717;28;20038;-62
2024/04/03 10:11:16;;;;;;;1.33;0.60;;;;;;;;;;5112289;28;20063;-59
2024/04/03 10:13:44;;;;;;;0.88;0.50;;;;;;;;;;5110539;28;20032;-60
2024/04/03 10:16:14;;;;;;;1.58;0.60;;;;;;;;;;5112217;28;20027;-60
2024/04/03 10:18:42;;;;;;;2.00;0.70;;;;;;;;;;5110991;28;20042;-61
2024/04/03 10:21:09;;;;;;;1.00;0.50;;;;;;;;;;5110682;28;20490;-56
2024/04/03 10:23:48;;;;;;;0.98;0.60;;;;;;;;;;5110326;28;20511;-55
2024/04/03 10:26:16;;;;;;;0.52;0.40;;;;;;;;;;5107030;28;20062;-53
2024/04/03 10:28:41;;;;;;;0.38;0.38;;;;;;;;;;5110410;28;20023;-55
2024/04/03 10:31:07;;;;;;;0.85;0.50;;;;;;;;;;5111462;28;20366;-53
2024/04/03 10:33:33;;;;;;;0.95;0.60;;;;;;;;;;5110772;28;20110;-56
2024/04/03 10:35:58;;;;;;;1.00;0.50;;;;;;;;;;5111636;28;20526;-54
2024/04/03 10:38:27;;;;;;;0.65;0.45;;;;;;;;;;5111518;28;20443;-56
2024/04/03 10:40:52;;;;;;;0.75;0.40;;;;;;;;;;5111871;28;20078;-53
2024/04/03 10:43:19;;;;;;;1.73;0.60;;;;;;;;;;5111247;28;20051;-52
2024/04/03 10:45:51;;;;;;;0.75;0.50;;;;;;;;;;5109998;28;20035;-57
2024/04/03 10:48:16;;;;;;;1.38;0.50;;;;;;;;;;5111415;28;20088;-57
2024/04/03 10:50:42;;;;;;;1.33;0.68;;;;;;;;;;5110338;28;20027;-56
2024/04/03 10:53:09;;;;;;;1.10;0.60;;;;;;;;;;5109924;28;20035;-56
2024/04/03 10:55:38;;;;;;;1.45;0.65;;;;;;;;;;5111264;28;20046;-54
2024/04/03 10:58:04;;;;;;;1.52;0.70;;;;;;;;;;5109977;28;20359;-54
2024/04/03 11:00:37;;;;;;;1.05;0.57;;;;;;;;;;5111105;28;20070;-60
2024/04/03 11:03:03;;;;;;;2.30;0.75;;;;;;;;;;5109840;28;20050;-61
2024/04/03 11:05:29;;;;;;;1.40;0.60;;;;;;;;;;5109846;28;20039;-60
2024/04/03 11:07:55;;;;;;;2.55;0.70;;;;;;;;;;5110963;28;20039;-61
2024/04/03 11:10:21;;;;;;;0.73;0.50;;;;;;;;;;5109729;28;20039;-60
2024/04/03 11:12:47;;;;;;;0.88;0.60;;;;;;;;;;5110944;28;20040;-61
2024/04/03 11:15:13;;;;;;;1.27;0.60;;;;;;;;;;5111366;28;20034;-61
2024/04/03 11:17:39;;;;;;;0.60;0.40;;;;;;;;;;5110730;28;20070;-58
2024/04/03 11:20:05;;;;;;;1.38;0.60;;;;;;;;;;5110913;28;20069;-60
2024/04/03 11:22:31;;;;;;;1.45;0.60;;;;;;;;;;5126947;27;20036;-61
2024/04/03 11:24:56;;;;;;;0.63;0.43;;;;;;;;;;5110475;28;20045;-61
2024/04/03 11:27:22;;;;;;;0.77;0.50;;;;;;;;;;5111160;28;20036;-54
2024/04/03 11:29:47;;;;;;;0.90;0.55;;;;;;;;;;5110488;28;20035;-58
2024/04/03 11:32:16;;;;;;;1.20;0.57;;;;;;;;;;5110892;28;20073;-54
2024/04/03 11:34:42;;;;;;;1.58;0.70;;;;;;;;;;5110735;28;20046;-55
2024/04/03 11:37:07;;;;;;;0.88;0.63;;;;;;;;;;5111140;28;20031;-53
2024/04/03 11:39:33;;;;;;;1.10;0.52;;;;;;;;;;5110768;28;20044;-55
2024/04/03 11:42:01;;;;;;;0.73;0.45;;;;;;;;;;5098780;28;20044;-53
2024/04/03 11:44:26;;;;;;;0.65;0.50;;;;;;;;;;5114201;28;20031;-53
2024/04/03 11:46:52;;;;;;;1.85;0.70;;;;;;;;;;5114726;28;20423;-57
2024/04/03 11:49:18;;;;;;;1.02;0.50;;;;;;;;;;5114509;28;20499;-53
2024/04/03 11:51:43;;;;;;;0.80;0.50;;;;;;;;;;5114796;28;20028;-51
2024/04/03 11:54:09;;;;;;;0.85;0.50;;;;;;;;;;5106728;28;20063;-61
2024/04/03 11:56:34;;;;;;;5.13;0.60;;;;;;;;;;5109942;28;20032;-58
2024/04/03 11:59:00;;;;;;;1.00;0.60;;;;;;;;;;5117403;27;20103;-61
2024/04/03 12:01:25;;;;;;;0.98;0.55;;;;;;;;;;5109701;28;20043;-58
2024/04/03 12:03:51;;;;;;;1.83;0.50;;;;;;;;;;5111233;28;20708;-59
2024/04/03 12:06:16;;;;;;;0.63;0.50;;;;;;;;;;5108822;28;20028;-63
2024/04/03 12:08:46;;;;;;;2.38;0.50;;;;;;;;;;5108208;28;20513;-61
2024/04/03 12:11:12;;;;;;;1.15;0.50;;;;;;;;;;5111628;28;20035;-58
2024/04/03 12:13:37;;;;;;;1.13;0.57;;;;;;;;;;5110640;28;20076;-61
2024/04/03 12:16:03;;;;;;;0.90;0.60;;;;;;;;;;5111518;28;20036;-61
2024/04/03 12:18:37;;;;;;;0.68;0.45;;;;;;;;;;5112669;28;20027;-59
2024/04/03 12:21:08;;;;;;;0.82;0.50;;;;;;;;;;5108997;28;20028;-60
2024/04/03 12:23:34;;;;;;;2.17;0.70;;;;;;;;;;5111836;28;20040;-61
2024/04/03 12:25:59;;;;;;;0.82;0.50;;;;;;;;;;5109745;28;20028;-59
2024/04/03 12:28:24;;;;;;;0.55;0.50;;;;;;;;;;5113388;28;20382;-61
2024/04/03 12:30:51;;;;;;;0.93;0.60;;;;;;;;;;5108032;28;20168;-61
2024/04/03 12:33:16;;;;;;;1.33;0.50;;;;;;;;;;5113552;28;20019;-60
2024/04/03 12:35:41;;;;;;;0.88;0.50;;;;;;;;;;5107718;28;20034;-61
2024/04/03 12:38:07;;;;;;;3.10;0.60;;;;;;;;;;5104362;28;20113;-59
2024/04/03 12:40:32;;;;;;;0.60;0.50;;;;;;;;;;5107043;28;20047;-60
2024/04/03 12:42:57;;;;;;;1.63;0.55;;;;;;;;;;5112942;28;20023;-61
2024/04/03 12:45:23;;;;;;;0.95;0.55;;;;;;;;;;5107136;28;20470;-56
2024/04/03 12:47:48;;;;;;;0.90;0.40;;;;;;;;;;5112718;28;20454;-57
2024/04/03 12:50:13;;;;;;;0.75;0.50;;;;;;;;;;5106460;28;20107;-56
2024/04/03 12:52:39;;;;;;;0.85;0.50;;;;;;;;;;5107608;28;20088;-54
2024/04/03 12:55:04;;;;;;;0.50;0.40;;;;;;;;;;5113442;28;20039;-56
2024/04/03 12:57:30;;;;;;;1.35;0.43;;;;;;;;;;5110833;28;20035;-56
2024/04/03 12:59:55;;;;;;;0.65;0.40;;;;;;;;;;5115959;27;20402;-58
2024/04/03 13:02:20;;;;;;;1.52;0.52;;;;;;;;;;5111252;28;20069;-62
2024/04/03 13:04:46;;;;;;;0.73;0.45;;;;;;;;;;5113560;28;20503;-62
2024/04/03 13:07:12;;;;;;;0.40;0.30;;;;;;;;;;5113465;28;20139;-63
2024/04/03 13:09:37;;;;;;;0.60;0.47;;;;;;;;;;5113269;28;20035;-62
2024/04/03 13:12:05;;;;;;;0.77;0.57;;;;;;;;;;5113273;28;20075;-62
2024/04/03 13:14:31;;;;;;;0.75;0.50;;;;;;;;;;5113561;28;20120;-62
2024/04/03 13:16:56;;;;;;;0.65;0.50;;;;;;;;;;5111929;28;20083;-57
2024/04/03 13:19:21;;;;;;;0.45;0.35;;;;;;;;;;5113559;28;20546;-57
2024/04/03 13:21:47;;;;;;;0.57;0.50;;;;;;;;;;5113140;28;20474;-55
2024/04/03 13:24:12;;;;;;;0.75;0.50;;;;;;;;;;5112664;28;20035;-55
2024/04/03 13:26:37;;;;;;;0.98;0.50;;;;;;;;;;5113043;28;20035;-58
2024/04/03 13:29:03;;;;;;;1.48;0.45;;;;;;;;;;5112991;28;20126;-55
2024/04/03 13:31:28;;;;;;;0.60;0.50;;;;;;;;;;5107984;28;20447;-62
2024/04/03 13:33:55;;;;;;;0.50;0.40;;;;;;;;;;5111579;28;20036;-61
2024/04/03 13:36:21;;;;;;;0.75;0.47;;;;;;;;;;5111933;28;20046;-61
2024/04/03 13:38:47;;;;;;;1.02;0.50;;;;;;;;;;5110355;28;20032;-61
2024/04/03 13:41:13;;;;;;;0.90;0.50;;;;;;;;;;5111760;28;20044;-61
2024/04/03 13:43:38;;;;;;;0.82;0.50;;;;;;;;;;5111732;28;20032;-56
2024/04/03 13:46:04;;;;;;;0.80;0.45;;;;;;;;;;5111646;28;20461;-62
2024/04/03 13:48:31;;;;;;;1.00;0.50;;;;;;;;;;5110698;28;20059;-60
2024/04/03 13:50:57;;;;;;;1.15;0.60;;;;;;;;;;5111436;28;20476;-60
2024/04/03 13:53:23;;;;;;;0.68;0.50;;;;;;;;;;5111951;28;20059;-61
2024/04/03 13:55:59;;;;;;;0.60;0.40;;;;;;;;;;5110222;28;20035;-59
2024/04/03 13:58:25;;;;;;;0.77;0.40;;;;;;;;;;5128680;27;20032;-56
2024/04/03 14:00:52;;;;;;;0.75;0.50;;;;;;;;;;5110524;28;20428;-57
2024/04/03 14:03:17;;;;;;;0.35;0.35;;;;;;;;;;5111400;28;20384;-57
2024/04/03 14:05:46;;;;;;;0.30;0.30;;;;;;;;;;5110559;28;20118;-58
2024/04/03 14:08:12;;;;;;;0.57;0.40;;;;;;;;;;5111458;28;20028;-55
2024/04/03 14:10:38;;;;;;;0.63;0.50;;;;;;;;;;5110893;28;20118;-57
2024/04/03 14:13:04;;;;;;;0.47;0.40;;;;;;;;;;5111112;28;20032;-56
2024/04/03 14:15:29;;;;;;;0.70;0.40;;;;;;;;;;5111232;28;20037;-57
2024/04/03 14:17:55;;;;;;;0.93;0.50;;;;;;;;;;5111090;28;20090;-55
2024/04/03 14:20:20;;;;;;;0.55;0.47;;;;;;;;;;5110319;28;20047;-54
2024/04/03 14:22:46;;;;;;;1.45;0.63;;;;;;;;;;5111031;28;20507;-56
2024/04/03 14:25:11;;;;;;;1.00;0.55;;;;;;;;;;5111139;28;20430;-57
2024/04/03 14:27:39;;;;;;;1.10;0.60;;;;;;;;;;5110632;28;20031;-58
2024/04/03 14:30:05;;;;;;;0.98;0.50;;;;;;;;;;5110671;27;20043;-55
2024/04/03 14:32:31;;;;;;;1.90;0.60;;;;;;;;;;5110719;28;20046;-56
2024/04/03 14:34:56;;;;;;;1.05;0.50;;;;;;;;;;5110643;28;20102;-58
2024/04/03 14:37:21;;;;;;;0.38;0.35;;;;;;;;;;5110645;28;20375;-57
2024/04/03 14:39:47;;;;;;;0.35;0.30;;;;;;;;;;5110098;28;20570;-57
2024/04/03 14:42:12;;;;;;;0.77;0.40;;;;;;;;;;5110014;28;20455;-57